createdAt,value
2023-06-09T00:01:15.944Z,64.86
2023-06-09T00:04:27.809Z,64.95
2023-06-09T00:07:34.729Z,65.20
2023-06-09T00:10:38.819Z,65.39
2023-06-09T00:13:42.945Z,65.51
2023-06-09T00:16:47.819Z,65.54
2023-06-09T00:19:53.673Z,65.56
2023-06-09T00:22:59.999Z,65.59
2023-06-09T00:26:04.035Z,65.72
2023-06-09T00:29:08.023Z,65.52
2023-06-09T00:32:13.286Z,65.68
2023-06-09T00:35:18.061Z,65.76
2023-06-09T00:38:22.073Z,65.84
2023-06-09T00:41:26.998Z,66.23
2023-06-09T00:44:30.958Z,66.18
2023-06-09T00:47:35.007Z,66.22
2023-06-09T00:50:41.055Z,66.55
2023-06-09T00:53:45.104Z,66.38
2023-06-09T00:56:49.567Z,66.32
2023-06-09T00:59:53.825Z,66.60
2023-06-09T01:03:02.341Z,66.58
2023-06-09T01:06:31.555Z,66.91
2023-06-09T01:09:39.902Z,67.00
2023-06-09T01:12:59.310Z,67.34
2023-06-09T01:16:14.340Z,67.27
2023-06-09T01:19:32.850Z,67.49
2023-06-09T01:22:46.615Z,67.60
2023-06-09T01:25:53.434Z,67.72
2023-06-09T01:28:59.590Z,68.09
2023-06-09T01:32:06.300Z,68.10
2023-06-09T01:35:11.023Z,68.38
2023-06-09T01:38:16.761Z,68.47
2023-06-09T01:41:22.079Z,68.42
2023-06-09T01:44:26.036Z,68.34
2023-06-09T01:47:30.115Z,68.44
2023-06-09T01:50:42.227Z,68.47
2023-06-09T01:54:00.658Z,68.81
2023-06-09T01:57:15.886Z,69.11
2023-06-09T02:00:23.457Z,69.11
2023-06-09T02:03:31.106Z,69.11
2023-06-09T02:06:37.259Z,69.30
2023-06-09T02:09:41.844Z,69.40
2023-06-09T02:12:45.838Z,69.14
2023-06-09T02:15:50.244Z,69.36
2023-06-09T02:18:55.032Z,69.42
2023-06-09T02:21:59.267Z,69.24
2023-06-09T02:25:07.806Z,69.46
2023-06-09T02:28:12.324Z,69.59
2023-06-09T02:31:17.298Z,69.53
2023-06-09T02:34:23.756Z,69.63
2023-06-09T02:37:31.291Z,69.91
2023-06-09T02:40:35.317Z,69.94
2023-06-09T02:43:39.448Z,69.97
2023-06-09T02:46:45.535Z,70.03
2023-06-09T02:49:49.613Z,70.08
2023-06-09T02:52:53.747Z,70.00
2023-06-09T02:55:58.360Z,70.26
2023-06-09T02:59:04.138Z,70.40
2023-06-09T03:02:09.286Z,70.26
2023-06-09T03:05:13.492Z,70.39
2023-06-09T03:08:17.656Z,70.31
2023-06-09T03:11:22.136Z,70.32
2023-06-09T03:14:26.272Z,70.10
2023-06-09T03:17:30.591Z,70.20
2023-06-09T03:20:37.551Z,70.34
2023-06-09T03:23:45.039Z,70.11
2023-06-09T03:26:50.070Z,70.52
2023-06-09T03:29:54.942Z,70.42
2023-06-09T03:32:59.600Z,70.66
2023-06-09T03:36:04.746Z,70.70
2023-06-09T03:39:09.433Z,70.76
2023-06-09T03:42:13.994Z,70.68
2023-06-09T03:45:18.212Z,70.57
2023-06-09T03:48:23.117Z,70.75
2023-06-09T03:51:27.875Z,70.58
2023-06-09T03:54:32.628Z,70.71
2023-06-09T03:57:36.682Z,70.59
2023-06-09T04:00:41.979Z,70.56
2023-06-09T04:03:46.262Z,70.78
2023-06-09T04:06:50.777Z,70.83
2023-06-09T04:09:57.388Z,70.70
2023-06-09T04:13:01.501Z,70.76
2023-06-09T04:16:05.667Z,70.55
2023-06-09T04:19:09.847Z,70.40
2023-06-09T04:22:14.117Z,70.31
2023-06-09T04:25:18.899Z,70.23
2023-06-09T04:28:23.453Z,69.95
2023-06-09T04:31:35.228Z,69.70
2023-06-09T04:34:41.277Z,69.27
2023-06-09T04:37:50.282Z,69.41
2023-06-09T04:40:59.052Z,69.05
2023-06-09T04:44:07.035Z,68.53
2023-06-09T04:47:18.921Z,68.19
2023-06-09T04:50:23.315Z,68.07
2023-06-09T04:53:28.284Z,68.02
2023-06-09T04:56:32.809Z,68.04
2023-06-09T04:59:36.860Z,67.82
2023-06-09T05:02:41.340Z,67.32
2023-06-09T05:05:46.063Z,66.99
2023-06-09T05:08:51.930Z,66.68
2023-06-09T05:11:56.930Z,66.53
2023-06-09T05:15:01.756Z,66.16
2023-06-09T05:18:09.534Z,65.96
2023-06-09T05:21:14.233Z,65.62
2023-06-09T05:24:18.399Z,65.12
2023-06-09T05:27:23.235Z,65.18
2023-06-09T05:30:27.654Z,65.15
2023-06-09T05:33:31.893Z,64.89
2023-06-09T05:36:37.700Z,64.27
2023-06-09T05:39:43.191Z,64.22
2023-06-09T05:42:48.105Z,64.05
2023-06-09T05:45:52.140Z,63.51
2023-06-09T05:48:56.155Z,63.58
2023-06-09T05:52:02.263Z,62.84
2023-06-09T05:55:06.653Z,62.64
2023-06-09T05:58:10.608Z,62.14
2023-06-09T06:01:18.320Z,61.68
2023-06-09T06:04:22.435Z,61.30
2023-06-09T06:07:26.943Z,60.99
2023-06-09T06:10:31.066Z,60.65
2023-06-09T06:13:35.028Z,60.29
2023-06-09T06:16:39.145Z,59.98
2023-06-09T06:19:43.313Z,59.59
2023-06-09T06:22:47.746Z,59.33
2023-06-09T06:25:52.458Z,59.29
2023-06-09T06:28:56.449Z,59.05
2023-06-09T06:32:01.901Z,58.81
2023-06-09T06:35:06.991Z,58.67
2023-06-09T06:38:10.941Z,58.23
2023-06-09T06:41:15.272Z,57.68
2023-06-09T06:44:20.449Z,57.39
2023-06-09T06:47:24.493Z,56.89
2023-06-09T06:50:28.621Z,56.19
2023-06-09T06:53:33.318Z,55.67
2023-06-09T06:56:38.046Z,55.02
2023-06-09T06:59:42.015Z,54.59
2023-06-09T07:02:50.185Z,54.25
2023-06-09T07:05:55.109Z,54.19
2023-06-09T07:09:01.223Z,54.07
2023-06-09T07:12:08.638Z,53.90
2023-06-09T07:15:12.885Z,53.45
2023-06-09T07:18:17.093Z,52.87
2023-06-09T07:21:21.232Z,52.26
2023-06-09T07:24:25.688Z,52.27
2023-06-09T07:27:29.748Z,52.22
2023-06-09T07:30:33.753Z,52.19
2023-06-09T07:33:38.839Z,51.77
2023-06-09T07:36:42.847Z,51.31
2023-06-09T07:39:46.959Z,50.86
2023-06-09T07:42:51.515Z,50.62
2023-06-09T07:45:55.886Z,50.51
2023-06-09T07:48:59.902Z,50.32
2023-06-09T07:52:20.483Z,49.72
2023-06-09T07:55:28.219Z,49.72
2023-06-09T07:58:32.199Z,49.66
2023-06-09T08:01:38.530Z,49.69
2023-06-09T08:04:42.832Z,49.27
2023-06-09T08:07:47.148Z,49.20
2023-06-09T08:10:51.171Z,49.30
2023-06-09T08:13:55.312Z,49.31
2023-06-09T08:16:59.302Z,49.04
2023-06-09T08:20:07.908Z,48.77
2023-06-09T08:23:12.915Z,48.17
2023-06-09T08:26:17.429Z,47.43
2023-06-09T08:29:21.728Z,47.02
2023-06-09T08:32:26.748Z,46.86
2023-06-09T08:35:33.347Z,46.53
2023-06-09T08:38:37.507Z,46.04
2023-06-09T08:41:44.374Z,46.09
2023-06-09T08:44:50.501Z,45.82
2023-06-09T08:47:56.397Z,45.90
2023-06-09T08:51:01.517Z,45.68
2023-06-09T08:54:08.040Z,45.29
2023-06-09T08:57:12.503Z,45.05
2023-06-09T09:00:17.745Z,44.63
2023-06-09T09:03:21.989Z,45.28
2023-06-09T09:06:28.018Z,44.97
2023-06-09T09:09:32.069Z,44.48
2023-06-09T09:12:53.371Z,44.29
2023-06-09T09:16:01.847Z,44.26
2023-06-09T09:19:06.774Z,44.52
2023-06-09T09:22:11.675Z,44.66
2023-06-09T09:25:27.403Z,44.82
2023-06-09T09:28:41.833Z,44.52
2023-06-09T09:31:46.159Z,44.85
2023-06-09T09:34:50.996Z,44.88
2023-06-09T09:37:54.977Z,44.89
2023-06-09T09:41:01.206Z,44.65
2023-06-09T09:44:05.275Z,44.87
2023-06-09T09:47:13.580Z,44.94
2023-06-09T09:50:24.943Z,44.47
2023-06-09T09:53:29.022Z,43.79
2023-06-09T09:56:33.740Z,43.44
2023-06-09T09:59:38.280Z,42.99
2023-06-09T10:02:46.733Z,43.34
2023-06-09T10:05:51.853Z,43.35
2023-06-09T10:08:57.343Z,43.28
2023-06-09T10:12:01.883Z,43.29
2023-06-09T10:15:09.885Z,43.54
2023-06-09T10:18:14.379Z,43.25
2023-06-09T10:21:19.276Z,42.74
2023-06-09T10:24:25.158Z,42.52
2023-06-09T10:27:30.365Z,42.45
2023-06-09T10:30:35.684Z,42.55
2023-06-09T10:33:44.693Z,42.33
2023-06-09T10:36:54.581Z,41.93
2023-06-09T10:40:17.662Z,41.87
2023-06-09T10:43:47.595Z,41.90
2023-06-09T10:46:54.498Z,41.79
2023-06-09T10:49:58.818Z,41.67
2023-06-09T10:53:03.699Z,41.41
2023-06-09T10:56:33.455Z,41.13
2023-06-09T10:59:37.405Z,41.29
2023-06-09T11:02:42.953Z,41.24
2023-06-09T11:05:59.943Z,41.59
2023-06-09T11:09:10.723Z,42.31
2023-06-09T11:12:40.188Z,42.76
2023-06-09T11:15:59.204Z,43.01
2023-06-09T11:19:24.774Z,43.08
2023-06-09T11:22:30.419Z,43.04
2023-06-09T11:25:35.198Z,43.10
2023-06-09T11:28:42.793Z,43.21
2023-06-09T11:31:50.491Z,43.19
2023-06-09T11:34:57.004Z,43.17
2023-06-09T11:38:01.808Z,43.12
2023-06-09T11:41:11.711Z,43.02
2023-06-09T11:44:16.004Z,42.94
2023-06-09T11:47:25.871Z,43.26
2023-06-09T11:50:40.943Z,43.69
2023-06-09T11:53:49.231Z,43.73
2023-06-09T11:56:53.675Z,43.63
2023-06-09T11:59:58.255Z,44.38
2023-06-09T12:03:04.157Z,44.41
2023-06-09T12:06:09.428Z,44.05
2023-06-09T12:09:22.770Z,43.55
2023-06-09T12:12:27.052Z,44.14
2023-06-09T12:15:32.001Z,45.07
2023-06-09T12:18:35.986Z,45.75
2023-06-09T12:21:39.971Z,46.52
2023-06-09T12:24:45.247Z,46.10
2023-06-09T12:27:49.314Z,45.92
2023-06-09T12:30:55.768Z,46.63
2023-06-09T12:34:01.633Z,47.18
2023-06-09T12:37:07.620Z,47.45
2023-06-09T12:40:13.463Z,47.53
2023-06-09T12:43:25.592Z,47.85
2023-06-09T12:46:34.970Z,48.30
2023-06-09T12:49:39.003Z,49.07
2023-06-09T12:52:43.031Z,49.41
2023-06-09T12:55:47.146Z,49.23
2023-06-09T12:58:51.281Z,49.31
2023-06-09T13:01:55.531Z,49.37
2023-06-09T13:04:59.722Z,49.86
2023-06-09T13:08:05.984Z,50.27
2023-06-09T13:11:12.674Z,49.86
2023-06-09T13:14:16.895Z,49.79
2023-06-09T13:17:21.127Z,49.74
2023-06-09T13:20:25.193Z,49.84
2023-06-09T13:23:29.455Z,49.62
2023-06-09T13:26:33.521Z,48.97
2023-06-09T13:29:37.776Z,48.27
2023-06-09T13:32:42.434Z,46.97
2023-06-09T13:35:46.930Z,46.07
2023-06-09T13:38:50.940Z,44.89
2023-06-09T13:41:54.921Z,43.93
2023-06-09T13:44:58.947Z,43.56
2023-06-09T13:48:03.019Z,43.85
2023-06-09T13:51:07.175Z,44.36
2023-06-09T13:54:11.182Z,44.30
2023-06-09T13:57:15.767Z,44.40
2023-06-09T14:00:20.020Z,44.31
2023-06-09T14:03:24.646Z,43.32
2023-06-09T14:06:28.880Z,42.26
2023-06-09T14:09:32.971Z,40.54
2023-06-09T14:12:38.704Z,39.42
2023-06-09T14:15:42.738Z,37.76
2023-06-09T14:18:46.954Z,37.26
2023-06-09T14:21:50.949Z,37.50
2023-06-09T14:24:54.917Z,37.92
2023-06-09T14:27:58.966Z,37.92
2023-06-09T14:31:02.986Z,38.11
2023-06-09T14:34:07.316Z,38.64
2023-06-09T14:37:11.335Z,38.90
2023-06-09T14:40:16.262Z,38.50
2023-06-09T14:43:20.407Z,38.68
2023-06-09T14:46:24.874Z,39.06
2023-06-09T14:49:28.921Z,38.83
2023-06-09T14:52:33.293Z,38.55
2023-06-09T14:55:48.749Z,38.35
2023-06-09T14:58:52.723Z,38.83
2023-06-09T15:01:56.781Z,39.31
2023-06-09T15:05:00.846Z,39.82
2023-06-09T15:08:05.863Z,40.41
2023-06-09T15:11:09.861Z,40.49
2023-06-09T15:14:13.855Z,40.66
2023-06-09T15:17:17.822Z,41.12
2023-06-09T15:20:25.620Z,40.99
2023-06-09T15:23:29.748Z,41.55
2023-06-09T15:26:37.047Z,41.15
2023-06-09T15:29:41.080Z,41.29
2023-06-09T15:32:45.092Z,41.39
2023-06-09T15:35:54.218Z,41.71
2023-06-09T15:38:58.714Z,42.07
2023-06-09T15:42:03.027Z,42.22
2023-06-09T15:45:07.684Z,42.74
2023-06-09T15:48:13.062Z,43.00
2023-06-09T15:51:17.038Z,43.63
2023-06-09T15:54:21.031Z,43.79
2023-06-09T15:57:25.062Z,44.08
2023-06-09T16:00:29.624Z,44.47
2023-06-09T16:03:35.278Z,44.92
2023-06-09T16:06:40.822Z,45.39
2023-06-09T16:09:44.834Z,45.69
2023-06-09T16:12:48.888Z,46.07
2023-06-09T16:15:52.905Z,46.56
2023-06-09T16:18:57.118Z,46.94
2023-06-09T16:22:01.110Z,47.37
2023-06-09T16:25:05.906Z,47.86
2023-06-09T16:28:13.008Z,47.99
2023-06-09T16:31:17.154Z,48.14
2023-06-09T16:34:21.192Z,48.59
2023-06-09T16:37:25.553Z,49.17
2023-06-09T16:40:29.818Z,49.02
2023-06-09T16:43:35.181Z,49.39
2023-06-09T16:46:39.206Z,49.50
2023-06-09T16:49:43.139Z,49.52
2023-06-09T16:52:47.230Z,49.35
2023-06-09T16:55:51.298Z,49.54
2023-06-09T16:58:55.509Z,49.63
2023-06-09T17:01:59.503Z,49.69
2023-06-09T17:05:03.847Z,49.90
2023-06-09T17:08:07.894Z,50.34
2023-06-09T17:11:11.915Z,50.46
2023-06-09T17:14:17.722Z,51.16
2023-06-09T17:17:24.585Z,51.85
2023-06-09T17:20:29.672Z,52.15
2023-06-09T17:23:33.691Z,52.29
2023-06-09T17:26:37.785Z,52.78
2023-06-09T17:29:41.779Z,52.80
2023-06-09T17:32:46.579Z,52.85
2023-06-09T17:35:51.814Z,52.68
2023-06-09T17:38:56.096Z,52.79
2023-06-09T17:42:03.255Z,53.02
2023-06-09T17:45:09.581Z,52.99
2023-06-09T17:48:14.119Z,52.04
2023-06-09T17:51:18.094Z,51.41
2023-06-09T17:54:22.132Z,50.30
2023-06-09T17:57:26.103Z,50.13
2023-06-09T18:00:30.055Z,50.02
2023-06-09T18:03:36.349Z,50.11
2023-06-09T18:06:46.581Z,50.15
2023-06-09T18:09:50.815Z,50.36
2023-06-09T18:12:54.796Z,50.44
2023-06-09T18:15:58.889Z,50.57
2023-06-09T18:19:03.158Z,50.63
2023-06-09T18:22:07.254Z,51.02
2023-06-09T18:25:11.388Z,51.39
2023-06-09T18:28:16.668Z,51.84
2023-06-09T18:31:20.787Z,52.17
2023-06-09T18:34:24.775Z,52.53
2023-06-09T18:37:29.002Z,52.88
2023-06-09T18:40:32.993Z,53.28
2023-06-09T18:43:39.073Z,53.32
2023-06-09T18:46:43.561Z,53.28
2023-06-09T18:49:47.799Z,53.26
2023-06-09T18:52:52.886Z,53.42
2023-06-09T18:55:57.485Z,53.59
2023-06-09T18:59:01.744Z,53.74
2023-06-09T19:02:08.139Z,54.47
2023-06-09T19:05:12.338Z,54.68
2023-06-09T19:08:16.917Z,54.89
2023-06-09T19:11:22.191Z,55.67
2023-06-09T19:14:26.373Z,55.87
2023-06-09T19:17:31.269Z,55.58
2023-06-09T19:20:35.477Z,55.80
2023-06-09T19:23:39.700Z,55.90
2023-06-09T19:26:43.628Z,56.24
2023-06-09T19:29:47.654Z,56.21
2023-06-09T19:32:51.661Z,56.79
2023-06-09T19:35:55.926Z,56.86
2023-06-09T19:38:59.979Z,56.72
2023-06-09T19:42:04.842Z,56.55
2023-06-09T19:45:09.921Z,57.12
2023-06-09T19:48:14.364Z,57.29
2023-06-09T19:51:18.447Z,56.85
2023-06-09T19:54:23.214Z,57.23
2023-06-09T19:57:27.164Z,57.63
2023-06-09T20:00:31.462Z,57.98
2023-06-09T20:03:35.510Z,58.06
2023-06-09T20:06:40.430Z,58.12
2023-06-09T20:09:44.421Z,58.01
2023-06-09T20:12:48.417Z,58.21
2023-06-09T20:15:52.427Z,58.17
2023-06-09T20:18:56.374Z,58.26
2023-06-09T20:22:00.456Z,58.08
2023-06-09T20:25:05.668Z,58.20
2023-06-09T20:28:09.704Z,58.13
2023-06-09T20:31:14.195Z,58.71
2023-06-09T20:34:18.263Z,58.73
2023-06-09T20:37:23.068Z,58.65
2023-06-09T20:40:27.134Z,59.05
2023-06-09T20:43:31.370Z,58.93
2023-06-09T20:46:35.941Z,59.17
2023-06-09T20:49:40.389Z,59.03
2023-06-09T20:52:45.352Z,58.97
2023-06-09T20:55:52.424Z,59.15
2023-06-09T20:58:56.409Z,59.24
2023-06-09T21:02:02.213Z,59.26
2023-06-09T21:05:06.757Z,59.57
2023-06-09T21:08:11.807Z,59.64
2023-06-09T21:11:16.418Z,59.83
2023-06-09T21:14:20.475Z,59.96
2023-06-09T21:17:24.542Z,60.19
2023-06-09T21:20:34.209Z,60.29
2023-06-09T21:23:38.798Z,60.48
2023-06-09T21:26:42.789Z,60.20
2023-06-09T21:29:46.787Z,60.04
2023-06-09T21:32:50.874Z,59.90
2023-06-09T21:35:55.423Z,60.10
2023-06-09T21:38:59.655Z,60.07
2023-06-09T21:42:04.523Z,60.14
2023-06-09T21:45:09.578Z,60.39
2023-06-09T21:48:15.814Z,60.68
2023-06-09T21:51:20.103Z,61.02
2023-06-09T21:54:24.105Z,60.95
2023-06-09T21:57:28.100Z,60.85
2023-06-09T22:00:32.311Z,60.96
2023-06-09T22:03:36.316Z,61.04
2023-06-09T22:06:40.324Z,61.26
2023-06-09T22:09:44.352Z,61.45
2023-06-09T22:12:48.408Z,61.52
2023-06-09T22:15:52.601Z,61.42
2023-06-09T22:18:56.592Z,61.48
2023-06-09T22:22:00.590Z,61.32
2023-06-09T22:25:05.346Z,61.31
2023-06-09T22:28:09.616Z,61.29
2023-06-09T22:31:14.832Z,61.37
2023-06-09T22:34:19.152Z,61.49
2023-06-09T22:37:23.136Z,61.41
2023-06-09T22:40:27.203Z,61.35
2023-06-09T22:43:31.196Z,61.47
2023-06-09T22:46:35.312Z,61.58
2023-06-09T22:50:02.724Z,61.50
2023-06-09T22:53:08.262Z,61.65
2023-06-09T22:56:13.509Z,61.57
2023-06-09T22:59:17.510Z,61.61
2023-06-09T23:02:23.933Z,61.66
2023-06-09T23:05:29.367Z,61.39
2023-06-09T23:08:34.079Z,61.45
2023-06-09T23:11:38.890Z,61.39
2023-06-09T23:14:43.128Z,61.43
2023-06-09T23:17:47.331Z,61.33
2023-06-09T23:20:51.503Z,61.26
2023-06-09T23:23:56.574Z,61.24
2023-06-09T23:27:00.638Z,61.33
2023-06-09T23:30:07.389Z,61.36
2023-06-09T23:33:13.766Z,61.56
2023-06-09T23:36:20.084Z,61.60
2023-06-09T23:39:24.089Z,61.61
2023-06-09T23:42:28.359Z,61.78
2023-06-09T23:45:32.231Z,61.94
2023-06-09T23:48:36.679Z,62.18
2023-06-09T23:51:40.753Z,62.08
2023-06-09T23:54:44.889Z,61.86
2023-06-09T23:57:49.582Z,61.75
